Majesty of the Seas — C6FZ8 — position and weather

sailwx.info

Track history (hours):
 
Tides and Currents Weather Stations Pressure Air Temp Water Temp Dewpoint Dewpoint Depression Visibility Wind Speed Wind Dir Waves Ship Positions

Majesty of the Seas (Bahamas)

Last reported at 2018-Jun-19 06:00 UTC. Time now 2018-Jun-22 07:42 UTC.
Position N 23°54' W 083°18'.

Length 268 m; draft 8 m.

Type: Ship. MMSI: 311734000.

Wind from 100 at 14 knots

Barometer 1015.8 mb
Air temperature 27.0 ° C
Visibility: greater than 27.0 NM
Dewpoint 24.1 ° C
Water temperature 29.6 ° C

Date/timePositionNaut miles runAvg speedWind from/ knotsBaromVisibWave heightAir tempDewpointWater temp
2018-Jun-19 06:00N 23°54' W 083°18'   100 / 141015.827.0 27.024.129.6
2018-Jun-15 06:00N 22°36' W 085°36'14320.1 100 / 201015.627.0 27.423.828.5
2018-Jun-14 22:53N 20°35' W 086°58'614.9
2018-Jun-14 22:30N 20°30' W 086°59'1 1.9
2018-Jun-14 21:59N 20°29' W 086°59'0 0.0
2018-Jun-14 21:29N 20°29' W 086°59'0 0.0
2018-Jun-14 20:59N 20°29' W 086°59'0 0.0
2018-Jun-14 20:29N 20°29' W 086°59'0 0.0
2018-Jun-14 19:59N 20°29' W 086°59'0 0.0
2018-Jun-14 19:29N 20°29' W 086°59'0 0.0
2018-Jun-14 18:59N 20°29' W 086°59'0 0.0
2018-Jun-14 18:26N 20°29' W 086°59'0 0.0
2018-Jun-14 17:59N 20°29' W 086°59'0 0.0
2018-Jun-14 17:29N 20°29' W 086°59'0 0.0
2018-Jun-14 16:59N 20°29' W 086°59'0 0.0
2018-Jun-14 16:29N 20°29' W 086°59'0 0.0
2018-Jun-14 15:59N 20°29' W 086°59'0 0.0
2018-Jun-14 15:29N 20°29' W 086°59'0 0.0
2018-Jun-14 14:59N 20°29' W 086°59'0 0.0
2018-Jun-14 14:29N 20°29' W 086°59'0 0.0
2018-Jun-14 13:59N 20°29' W 086°59'0 0.0
2018-Jun-14 13:29N 20°29' W 086°59'0 0.0
2018-Jun-14 12:59N 20°29' W 086°59'0 0.0
2018-Jun-14 12:29N 20°29' W 086°59'0 0.0
2018-Jun-14 11:59N 20°29' W 086°59'0 0.0
2018-Jun-14 11:29N 20°29' W 086°59'0 0.0
2018-Jun-14 10:59N 20°29' W 086°59'0 0.0
2018-Jun-14 10:23N 20°29' W 086°59'2 4.3
2018-Jun-14 10:01N 20°30' W 086°59'611.9
2018-Jun-14 09:30N 20°36' W 086°56'4 7.7
2018-Jun-14 09:00N 20°38' W 086°53'29 9.5
2018-Jun-14 06:00N 20°48' W 086°24'26511.0 110 / 151014.627.0 25.924.328.5
2018-Jun-13 06:00N 23°42' W 082°48'121 5.0 120 / 131016.327.0 27.024.128.8
2018-Jun-12 06:00N 25°42' W 083°06'286 6.0 130 / 101015.327.0 26.224.028.4
2018-Jun-10 06:00N 21°48' W 086°06'8619.9 100 / 201015.327.0 27.024.129.0
2018-Jun-10 01:38N 20°36' W 086°57'320.0
2018-Jun-10 01:30N 20°33' W 086°58'4 8.8
2018-Jun-10 01:00N 20°29' W 086°59'0 0.4
2018-Jun-10 00:29N 20°29' W 086°59'0 0.0
2018-Jun-09 23:59N 20°29' W 086°59'0 0.0
2018-Jun-09 23:29N 20°29' W 086°59'0 0.0
2018-Jun-09 22:59N 20°29' W 086°59'0 0.0
2018-Jun-09 22:23N 20°29' W 086°59'0 0.0
2018-Jun-09 21:56N 20°29' W 086°59'0 0.0
2018-Jun-09 21:29N 20°29' W 086°59'0 0.0
2018-Jun-09 20:59N 20°29' W 086°59'0 0.0
2018-Jun-09 20:29N 20°29' W 086°59'0 0.0
2018-Jun-09 19:59N 20°29' W 086°59'0 0.0
2018-Jun-09 19:26N 20°29' W 086°59'0 0.0
2018-Jun-09 18:59N 20°29' W 086°59'0 0.0
2018-Jun-09 18:29N 20°29' W 086°59'0 0.0
2018-Jun-09 17:56N 20°29' W 086°59'0 0.0
2018-Jun-09 17:29N 20°29' W 086°59'0 0.0
2018-Jun-09 16:56N 20°29' W 086°59'0 0.0
2018-Jun-09 16:23N 20°29' W 086°59'0 0.8
2018-Jun-09 15:59N 20°29' W 086°59'1111.1
2018-Jun-09 14:59N 20°39' W 086°53'  
Track history (hours):
 
Tides and Currents Weather Stations Pressure Air Temp Water Temp Dewpoint Dewpoint Depression Visibility Wind Speed Wind Dir Waves Ship Positions

Majesty of the Seas (Bahamas)

Last reported at 2018-Jun-19 06:00 UTC. Time now 2018-Jun-22 07:42 UTC.
Position N 23°54' W 083°18'.

Length 268 m; draft 8 m.

Type: Ship. MMSI: 311734000.

Wind from 100 at 14 knots

Barometer 1015.8 mb
Air temperature 27.0 ° C
Visibility: greater than 27.0 NM
Dewpoint 24.1 ° C
Water temperature 29.6 ° C

Date/timePositionNaut miles runAvg speedWind from/ knotsBaromVisibWave heightAir tempDewpointWater temp
2018-Jun-19 06:00N 23°54' W 083°18'   100 / 141015.827.0 27.024.129.6
2018-Jun-15 06:00N 22°36' W 085°36'14320.1 100 / 201015.627.0 27.423.828.5
2018-Jun-14 22:53N 20°35' W 086°58'614.9
2018-Jun-14 22:30N 20°30' W 086°59'1 1.9
2018-Jun-14 21:59N 20°29' W 086°59'0 0.0
2018-Jun-14 21:29N 20°29' W 086°59'0 0.0
2018-Jun-14 20:59N 20°29' W 086°59'0 0.0
2018-Jun-14 20:29N 20°29' W 086°59'0 0.0
2018-Jun-14 19:59N 20°29' W 086°59'0 0.0
2018-Jun-14 19:29N 20°29' W 086°59'0 0.0
2018-Jun-14 18:59N 20°29' W 086°59'0 0.0
2018-Jun-14 18:26N 20°29' W 086°59'0 0.0
2018-Jun-14 17:59N 20°29' W 086°59'0 0.0
2018-Jun-14 17:29N 20°29' W 086°59'0 0.0
2018-Jun-14 16:59N 20°29' W 086°59'0 0.0
2018-Jun-14 16:29N 20°29' W 086°59'0 0.0
2018-Jun-14 15:59N 20°29' W 086°59'0 0.0
2018-Jun-14 15:29N 20°29' W 086°59'0 0.0
2018-Jun-14 14:59N 20°29' W 086°59'0 0.0
2018-Jun-14 14:29N 20°29' W 086°59'0 0.0
2018-Jun-14 13:59N 20°29' W 086°59'0 0.0
2018-Jun-14 13:29N 20°29' W 086°59'0 0.0
2018-Jun-14 12:59N 20°29' W 086°59'0 0.0
2018-Jun-14 12:29N 20°29' W 086°59'0 0.0
2018-Jun-14 11:59N 20°29' W 086°59'0 0.0
2018-Jun-14 11:29N 20°29' W 086°59'0 0.0
2018-Jun-14 10:59N 20°29' W 086°59'0 0.0
2018-Jun-14 10:23N 20°29' W 086°59'2 4.3
2018-Jun-14 10:01N 20°30' W 086°59'611.9
2018-Jun-14 09:30N 20°36' W 086°56'4 7.7
2018-Jun-14 09:00N 20°38' W 086°53'29 9.5
2018-Jun-14 06:00N 20°48' W 086°24'26511.0 110 / 151014.627.0 25.924.328.5
2018-Jun-13 06:00N 23°42' W 082°48'121 5.0 120 / 131016.327.0 27.024.128.8
2018-Jun-12 06:00N 25°42' W 083°06'286 6.0 130 / 101015.327.0 26.224.028.4
2018-Jun-10 06:00N 21°48' W 086°06'8619.9 100 / 201015.327.0 27.024.129.0
2018-Jun-10 01:38N 20°36' W 086°57'320.0
2018-Jun-10 01:30N 20°33' W 086°58'4 8.8
2018-Jun-10 01:00N 20°29' W 086°59'0 0.4
2018-Jun-10 00:29N 20°29' W 086°59'0 0.0
2018-Jun-09 23:59N 20°29' W 086°59'0 0.0
2018-Jun-09 23:29N 20°29' W 086°59'0 0.0
2018-Jun-09 22:59N 20°29' W 086°59'0 0.0
2018-Jun-09 22:23N 20°29' W 086°59'0 0.0
2018-Jun-09 21:56N 20°29' W 086°59'0 0.0
2018-Jun-09 21:29N 20°29' W 086°59'0 0.0
2018-Jun-09 20:59N 20°29' W 086°59'0 0.0
2018-Jun-09 20:29N 20°29' W 086°59'0 0.0
2018-Jun-09 19:59N 20°29' W 086°59'0 0.0
2018-Jun-09 19:26N 20°29' W 086°59'0 0.0
2018-Jun-09 18:59N 20°29' W 086°59'0 0.0
2018-Jun-09 18:29N 20°29' W 086°59'0 0.0
2018-Jun-09 17:56N 20°29' W 086°59'0 0.0
2018-Jun-09 17:29N 20°29' W 086°59'0 0.0
2018-Jun-09 16:56N 20°29' W 086°59'0 0.0
2018-Jun-09 16:23N 20°29' W 086°59'0 0.8
2018-Jun-09 15:59N 20°29' W 086°59'1111.1
2018-Jun-09 14:59N 20°39' W 086°53'  

Dump ship's entire track history